Time;durP1;ratioP1;P1;durP2;ratioP2;P2;SDS_P1;SDS_P2;PMS_P1;PMS_P2;Temp;Humidity;BMP_temperature;BMP_pressure;BME280_temperature;BME280_humidity;BME280_pressure;Samples;Min_cycle;Max_cycle;Signal;HPM_P1;HPM_P2
2021/01/31 00:00:30;;;;;;;13.27;7.30;;;6.20;99.90;;;;;;5069030;28;20123;-51
2021/01/31 00:02:56;;;;;;;8.80;5.30;;;6.30;99.90;;;;;;5068993;28;20062;-55
2021/01/31 00:05:23;;;;;;;10.73;5.78;;;6.40;99.90;;;;;;5069088;28;20028;-56
2021/01/31 00:07:50;;;;;;;9.68;5.30;;;6.40;99.90;;;;;;5068947;28;20032;-55
2021/01/31 00:10:19;;;;;;;10.23;5.75;;;6.40;99.90;;;;;;5069154;28;20043;-58
2021/01/31 00:12:45;;;;;;;12.75;7.30;;;6.50;99.90;;;;;;5068957;28;20031;-52
2021/01/31 00:15:15;;;;;;;11.55;7.53;;;6.40;99.90;;;;;;5068597;28;20029;-60
2021/01/31 00:17:41;;;;;;;11.45;7.60;;;6.30;99.90;;;;;;5069087;28;20024;-52
2021/01/31 00:20:08;;;;;;;14.52;8.70;;;6.20;99.90;;;;;;5068929;28;20545;-57
2021/01/31 00:22:34;;;;;;;17.65;8.98;;;6.10;99.90;;;;;;5068914;28;20476;-55
2021/01/31 00:24:59;;;;;;;14.00;8.40;;;6.10;99.90;;;;;;5068908;28;20487;-57
2021/01/31 00:27:26;;;;;;;13.95;7.40;;;6.10;99.90;;;;;;5068719;28;20048;-55
2021/01/31 00:29:52;;;;;;;16.20;7.78;;;6.10;99.90;;;;;;5068726;28;20060;-53
2021/01/31 00:32:29;;;;;;;11.70;7.07;;;6.10;99.90;;;;;;5068725;28;20103;-56
2021/01/31 00:34:56;;;;;;;11.23;6.50;;;6.20;99.90;;;;;;5068539;28;20037;-54
2021/01/31 00:37:23;;;;;;;13.05;7.35;;;6.20;99.90;;;;;;5068738;28;20028;-53
2021/01/31 00:39:51;;;;;;;11.90;7.20;;;6.20;99.90;;;;;;5068329;28;20418;-52
2021/01/31 00:42:19;;;;;;;12.23;7.20;;;6.20;99.90;;;;;;5068066;28;20087;-59
2021/01/31 00:44:50;;;;;;;12.73;7.35;;;6.20;99.90;;;;;;5068632;28;20594;-54
2021/01/31 00:47:17;;;;;;;12.43;6.82;;;6.20;99.90;;;;;;5068803;28;20388;-58
2021/01/31 00:49:43;;;;;;;13.32;7.55;;;6.20;99.90;;;;;;5068603;28;20052;-58
2021/01/31 00:52:09;;;;;;;13.35;8.55;;;6.20;99.90;;;;;;5068881;28;20025;-55
2021/01/31 00:54:35;;;;;;;14.82;8.60;;;6.30;99.90;;;;;;5068357;28;20035;-58
2021/01/31 00:57:01;;;;;;;18.63;9.85;;;6.30;99.90;;;;;;5068829;28;20044;-56
2021/01/31 00:59:26;;;;;;;17.48;9.23;;;6.30;99.90;;;;;;5068494;28;20037;-58
2021/01/31 01:01:52;;;;;;;14.48;7.15;;;6.30;99.90;;;;;;5071501;28;20112;-54
2021/01/31 01:04:18;;;;;;;9.35;6.03;;;6.30;99.90;;;;;;5072538;28;20024;-56
2021/01/31 01:06:45;;;;;;;10.73;5.60;;;6.20;99.90;;;;;;5072690;28;20028;-52
2021/01/31 01:09:12;;;;;;;10.93;7.03;;;6.20;99.90;;;;;;5072474;28;20031;-55
2021/01/31 01:11:38;;;;;;;12.18;6.97;;;6.20;99.90;;;;;;5072476;28;20082;-59
2021/01/31 01:14:04;;;;;;;11.20;5.70;;;6.20;99.90;;;;;;5072120;28;20055;-57
2021/01/31 01:16:29;;;;;;;10.88;6.03;;;6.20;99.90;;;;;;5072455;28;20040;-53
2021/01/31 01:18:56;;;;;;;9.30;6.07;;;6.20;99.90;;;;;;5072441;28;20033;-54
2021/01/31 01:21:22;;;;;;;10.70;5.97;;;6.20;99.90;;;;;;5071969;28;20028;-53
2021/01/31 01:23:47;;;;;;;11.48;6.05;;;6.20;99.90;;;;;;5071904;28;20384;-52
2021/01/31 01:26:13;;;;;;;9.20;5.50;;;6.20;99.90;;;;;;5071928;28;20032;-53
2021/01/31 01:28:39;;;;;;;8.90;5.68;;;6.10;99.90;;;;;;5072158;28;20040;-55
2021/01/31 01:31:04;;;;;;;9.63;5.82;;;6.10;99.90;;;;;;5071844;28;20109;-53
2021/01/31 01:33:30;;;;;;;12.05;5.65;;;6.10;99.90;;;;;;5072155;28;20073;-56
2021/01/31 01:35:56;;;;;;;8.52;5.45;;;6.10;99.90;;;;;;5067475;28;20032;-58
2021/01/31 01:38:21;;;;;;;11.85;6.07;;;6.10;99.90;;;;;;5058469;28;20074;-54
2021/01/31 01:40:47;;;;;;;8.07;5.28;;;6.10;99.90;;;;;;5052050;28;20083;-57
2021/01/31 01:43:16;;;;;;;8.35;5.85;;;6.10;99.90;;;;;;5051663;28;20500;-57
2021/01/31 01:45:42;;;;;;;9.02;4.65;;;6.10;99.90;;;;;;5051801;28;20036;-58
2021/01/31 01:48:17;;;;;;;8.05;4.78;;;6.10;99.90;;;;;;5052000;28;20029;-58
2021/01/31 01:50:52;;;;;;;7.30;4.65;;;6.20;99.90;;;;;;5051613;28;20527;-57
2021/01/31 01:53:21;;;;;;;8.38;4.40;;;6.20;99.90;;;;;;5051782;28;20033;-54
2021/01/31 01:56:21;;;;;;;7.40;4.43;;;6.20;99.90;;;;;;5051683;28;20055;-57
2021/01/31 01:58:47;;;;;;;8.57;4.53;;;6.20;99.90;;;;;;5042372;28;20029;-55
2021/01/31 02:01:17;;;;;;;8.05;4.93;;;6.30;99.90;;;;;;5051643;28;20419;-55
2021/01/31 02:03:44;;;;;;;8.65;4.32;;;6.20;99.90;;;;;;5051316;28;20029;-60
2021/01/31 02:06:22;;;;;;;8.60;4.80;;;6.20;99.90;;;;;;5051259;28;20025;-56
2021/01/31 02:08:49;;;;;;;6.38;3.72;;;6.20;99.90;;;;;;5051291;28;20036;-57
2021/01/31 02:11:16;;;;;;;5.50;3.55;;;6.20;99.90;;;;;;5051189;28;20063;-55
2021/01/31 02:13:45;;;;;;;5.45;3.35;;;6.20;99.90;;;;;;5051078;28;20029;-56
2021/01/31 02:16:19;;;;;;;5.53;3.20;;;6.40;99.90;;;;;;5051062;28;20025;-51
2021/01/31 02:19:11;;;;;;;4.55;3.22;;;6.40;99.90;;;;;;5051073;28;20043;-51
2021/01/31 02:21:55;;;;;;;5.78;3.15;;;6.40;99.90;;;;;;5050890;28;20029;-57
2021/01/31 02:24:37;;;;;;;5.97;1.83;;;6.40;99.90;;;;;;5050823;28;20040;-56
2021/01/31 02:27:20;;;;;;;3.95;2.50;;;6.40;99.90;;;;;;5051279;28;20025;-57
2021/01/31 02:30:13;;;;;;;3.88;1.77;;;6.50;99.90;;;;;;5050997;28;20047;-59
2021/01/31 02:32:48;;;;;;;4.50;1.80;;;6.50;99.90;;;;;;5059134;28;20024;-52
2021/01/31 02:35:24;;;;;;;2.40;1.42;;;6.50;99.90;;;;;;5070806;28;20047;-58
2021/01/31 02:38:31;;;;;;;3.95;2.28;;;6.60;99.90;;;;;;5070953;28;20028;-55
2021/01/31 02:41:11;;;;;;;5.88;1.70;;;6.60;99.90;;;;;;5070727;28;20127;-56
2021/01/31 02:43:42;;;;;;;3.00;1.23;;;6.60;99.90;;;;;;5070590;28;20060;-50
2021/01/31 02:46:27;;;;;;;2.42;1.08;;;6.70;99.90;;;;;;5070875;28;20029;-56
2021/01/31 02:49:03;;;;;;;1.17;0.60;;;6.80;99.90;;;;;;5070864;28;20048;-51
2021/01/31 02:51:49;;;;;;;1.48;0.45;;;6.90;99.90;;;;;;5070507;28;20489;-56
2021/01/31 02:54:35;;;;;;;;;;;7.00;99.90;;;;;;5071036;28;20174;-57
2021/01/31 02:57:15;;;;;;;0.88;0.25;;;7.00;99.90;;;;;;5069994;28;19969;-60
2021/01/31 03:00:00;;;;;;;1.95;0.85;;;7.00;99.90;;;;;;5070591;28;20071;-55
2021/01/31 03:02:31;;;;;;;0.98;0.28;;;7.00;99.90;;;;;;5070362;28;20037;-57
2021/01/31 03:07:30;;;;;;;0.85;0.20;;;7.00;99.90;;;;;;5005627;22;20052;-59
2021/01/31 03:10:09;;;;;;;0.88;0.10;;;6.90;99.90;;;;;;5070348;28;20032;-56
2021/01/31 03:12:50;;;;;;;0.85;0.10;;;6.90;99.90;;;;;;5070144;28;20048;-61
2021/01/31 03:15:24;;;;;;;0.22;0.10;;;6.90;99.90;;;;;;5070277;28;20497;-54
2021/01/31 03:17:57;;;;;;;0.30;0.00;;;6.90;99.90;;;;;;5068973;28;20032;-54
2021/01/31 03:20:36;;;;;;;0.20;0.00;;;6.90;99.90;;;;;;5061934;28;20062;-55
2021/01/31 03:23:10;;;;;;;0.17;0.00;;;6.80;99.90;;;;;;5049632;28;20049;-54
2021/01/31 03:25:52;;;;;;;0.52;0.00;;;6.80;99.90;;;;;;5067193;28;20129;-56
2021/01/31 03:28:34;;;;;;;0.55;0.00;;;6.80;99.90;;;;;;5069773;28;20056;-57
2021/01/31 03:31:01;;;;;;;0.10;0.00;;;6.70;99.90;;;;;;5069570;28;20024;-58
2021/01/31 03:33:35;;;;;;;0.10;0.00;;;6.70;99.90;;;;;;5069443;28;20499;-59
2021/01/31 03:36:02;;;;;;;0.10;0.00;;;6.70;99.90;;;;;;5067116;28;20032;-54
2021/01/31 03:38:36;;;;;;;0.15;0.00;;;6.60;99.90;;;;;;5049927;28;20032;-58
2021/01/31 03:41:06;;;;;;;0.20;0.00;;;6.60;99.90;;;;;;5049739;28;20120;-57
2021/01/31 03:43:32;;;;;;;0.00;0.00;;;6.60;99.90;;;;;;5049404;28;20090;-55
2021/01/31 03:46:16;;;;;;;0.10;0.00;;;6.60;99.90;;;;;;5049242;28;20024;-58
2021/01/31 03:48:59;;;;;;;0.03;0.00;;;6.60;99.90;;;;;;5049294;28;20048;-58
2021/01/31 03:51:27;;;;;;;0.20;0.00;;;6.70;99.90;;;;;;5049261;28;20120;-52
2021/01/31 03:53:54;;;;;;;1.45;0.00;;;6.70;99.90;;;;;;5049186;28;20040;-58
2021/01/31 03:56:25;;;;;;;0.38;0.00;;;6.70;99.90;;;;;;5049394;28;20552;-58
2021/01/31 03:58:54;;;;;;;0.30;0.00;;;6.70;99.90;;;;;;5049180;28;20128;-59
2021/01/31 04:01:23;;;;;;;0.10;0.00;;;6.70;99.90;;;;;;5049270;28;20064;-53
2021/01/31 04:04:04;;;;;;;0.15;0.00;;;6.70;99.90;;;;;;5049206;28;20501;-60
2021/01/31 04:06:33;;;;;;;0.90;0.05;;;6.70;99.90;;;;;;5048926;28;20045;-52
2021/01/31 04:08:59;;;;;;;0.20;0.00;;;6.60;99.90;;;;;;5049259;28;20538;-57
2021/01/31 04:11:45;;;;;;;1.98;0.00;;;6.70;99.90;;;;;;5049695;28;20082;-59
2021/01/31 04:14:18;;;;;;;0.20;0.00;;;6.70;99.90;;;;;;5065576;28;20031;-57
2021/01/31 04:16:46;;;;;;;0.43;0.00;;;6.60;99.90;;;;;;5068957;28;20040;-57
2021/01/31 04:19:13;;;;;;;0.00;0.00;;;6.60;99.90;;;;;;5068821;28;20081;-53
2021/01/31 04:21:39;;;;;;;0.28;0.00;;;6.70;99.90;;;;;;5068895;28;20063;-53
2021/01/31 04:24:05;;;;;;;0.17;0.00;;;6.60;99.90;;;;;;5068871;28;20036;-55
2021/01/31 04:26:31;;;;;;;0.00;0.00;;;6.60;99.90;;;;;;5068887;28;20476;-54
2021/01/31 04:29:07;;;;;;;0.03;0.00;;;6.60;99.90;;;;;;5068899;28;20123;-58
2021/01/31 04:31:33;;;;;;;0.10;0.00;;;6.60;99.90;;;;;;5069175;28;20028;-58
2021/01/31 04:33:59;;;;;;;0.10;0.00;;;6.60;99.90;;;;;;5069124;28;20032;-58
2021/01/31 04:36:26;;;;;;;0.00;0.00;;;6.60;99.90;;;;;;5067479;28;20032;-57
2021/01/31 04:38:52;;;;;;;0.00;0.00;;;6.60;99.90;;;;;;5068993;28;20200;-58
2021/01/31 04:41:18;;;;;;;0.00;0.00;;;6.60;99.90;;;;;;5068966;28;20384;-53
2021/01/31 04:43:44;;;;;;;0.20;0.00;;;6.70;99.90;;;;;;5068958;28;20036;-58
2021/01/31 04:46:18;;;;;;;0.10;0.00;;;6.70;99.90;;;;;;5068663;28;20024;-54
2021/01/31 04:48:55;;;;;;;4.90;0.57;;;6.70;99.90;;;;;;5068597;28;20123;-57
2021/01/31 04:51:39;;;;;;;0.00;0.00;;;6.70;99.90;;;;;;5068762;28;20379;-58
2021/01/31 04:54:14;;;;;;;0.00;0.00;;;6.70;99.90;;;;;;5068585;28;20334;-54
2021/01/31 04:57:11;;;;;;;0.00;0.00;;;6.80;99.90;;;;;;5068478;28;20389;-58
2021/01/31 04:59:58;;;;;;;0.32;0.00;;;6.90;99.90;;;;;;5062352;28;20161;-56
2021/01/31 05:02:39;;;;;;;0.00;0.00;;;7.00;99.90;;;;;;5068693;28;20040;-56
2021/01/31 05:05:19;;;;;;;1.25;0.20;;;6.80;99.90;;;;;;5068328;28;20441;-57
2021/01/31 05:07:51;;;;;;;0.50;0.50;;;6.60;99.90;;;;;;5068247;28;20064;-55
2021/01/31 05:10:18;;;;;;;0.40;0.10;;;6.40;99.90;;;;;;5068348;28;20140;-54
2021/01/31 05:13:14;;;;;;;0.35;0.10;;;6.30;99.90;;;;;;5068238;28;20029;-50
2021/01/31 05:15:55;;;;;;;1.80;0.10;;;6.20;99.90;;;;;;5068285;28;20033;-54
2021/01/31 05:18:21;;;;;;;0.22;0.00;;;6.40;99.90;;;;;;5068245;28;20263;-57
2021/01/31 05:20:53;;;;;;;0.20;0.00;;;6.40;99.90;;;;;;5067959;28;20040;-55
2021/01/31 05:23:18;;;;;;;0.35;0.00;;;6.30;99.90;;;;;;5068184;28;20053;-56
2021/01/31 05:25:46;;;;;;;0.30;0.00;;;6.30;99.90;;;;;;5068160;28;20037;-55
2021/01/31 05:28:12;;;;;;;0.70;0.20;;;6.20;99.90;;;;;;5068002;28;20432;-56
2021/01/31 05:30:44;;;;;;;0.80;0.20;;;6.30;99.90;;;;;;5068370;28;20132;-59
2021/01/31 05:33:15;;;;;;;1.58;0.40;;;6.30;99.90;;;;;;5068480;28;20040;-51
2021/01/31 05:35:52;;;;;;;1.58;0.50;;;6.30;99.90;;;;;;5068296;28;20028;-56
2021/01/31 05:38:41;;;;;;;6.10;5.70;;;6.20;99.90;;;;;;5067905;28;20154;-53
2021/01/31 05:41:48;;;;;;;2.00;1.40;;;6.20;99.90;;;;;;5067980;28;20055;-58
2021/01/31 05:44:16;;;;;;;0.70;0.30;;;6.10;99.90;;;;;;5068188;28;20041;-55
2021/01/31 05:46:51;;;;;;;0.38;0.20;;;6.20;99.90;;;;;;5069224;28;20041;-50
2021/01/31 05:49:34;;;;;;;0.32;0.10;;;6.20;99.90;;;;;;5071929;28;20029;-54
2021/01/31 05:52:01;;;;;;;0.25;0.00;;;6.20;99.90;;;;;;5072394;28;20028;-55
2021/01/31 05:54:34;;;;;;;0.20;0.00;;;6.60;99.90;;;;;;5071880;28;20056;-57
2021/01/31 05:57:00;;;;;;;0.10;0.00;;;6.70;99.90;;;;;;5071861;28;20095;-56
2021/01/31 05:59:41;;;;;;;0.13;0.00;;;7.00;99.90;;;;;;5071508;28;20731;-50
2021/01/31 06:02:08;;;;;;;0.28;0.00;;;7.10;99.90;;;;;;5071741;28;20036;-56
2021/01/31 06:04:34;;;;;;;0.10;0.00;;;7.00;99.90;;;;;;5071564;28;20040;-57
2021/01/31 06:07:07;;;;;;;0.20;0.00;;;6.90;99.90;;;;;;5071238;28;20048;-56
2021/01/31 06:09:51;;;;;;;0.10;0.00;;;7.00;99.90;;;;;;5071377;28;20024;-55
2021/01/31 06:12:19;;;;;;;0.60;0.10;;;6.90;99.90;;;;;;5070863;28;20032;-60
2021/01/31 06:14:58;;;;;;;1.60;0.10;;;6.80;99.90;;;;;;5051447;28;20062;-56
2021/01/31 06:17:27;;;;;;;0.73;0.20;;;6.70;99.90;;;;;;5051764;28;20033;-54
2021/01/31 06:20:17;;;;;;;1.30;0.20;;;6.50;99.90;;;;;;5051213;28;20116;-56
2021/01/31 06:22:48;;;;;;;0.60;0.20;;;6.40;99.90;;;;;;5051122;28;20084;-53
2021/01/31 06:25:32;;;;;;;0.85;0.10;;;6.40;99.90;;;;;;5051307;28;20127;-54
2021/01/31 06:28:12;;;;;;;0.40;0.10;;;6.30;99.90;;;;;;5051029;28;20028;-59
2021/01/31 06:31:05;;;;;;;0.75;0.15;;;6.40;99.90;;;;;;5050838;28;20148;-53
2021/01/31 06:33:31;;;;;;;2.85;0.10;;;6.40;99.90;;;;;;5051160;28;20060;-56
2021/01/31 06:36:12;;;;;;;0.13;0.00;;;6.40;99.90;;;;;;5050815;28;20080;-56
2021/01/31 06:38:51;;;;;;;0.40;0.20;;;6.40;99.90;;;;;;5050897;28;20063;-54
2021/01/31 06:41:35;;;;;;;0.50;0.10;;;6.40;99.90;;;;;;5051143;28;20379;-55
2021/01/31 06:44:13;;;;;;;0.40;0.00;;;6.40;99.90;;;;;;5050775;28;20369;-58
2021/01/31 06:46:51;;;;;;;0.30;0.00;;;6.60;99.90;;;;;;5050804;28;20040;-57
2021/01/31 06:49:32;;;;;;;0.17;0.00;;;6.60;99.90;;;;;;5050735;28;20037;-55
2021/01/31 06:52:38;;;;;;;1.10;0.00;;;6.60;99.90;;;;;;5050802;28;20060;-58
2021/01/31 06:55:50;;;;;;;1.45;0.10;;;6.60;99.90;;;;;;5050547;28;20072;-55
2021/01/31 06:58:53;;;;;;;0.60;0.20;;;6.70;99.90;;;;;;5038592;28;20044;-55
2021/01/31 07:01:28;;;;;;;0.47;0.10;;;6.70;99.90;;;;;;5050406;28;20028;-59
2021/01/31 07:04:02;;;;;;;0.08;0.00;;;6.60;99.90;;;;;;5050375;28;20037;-57
2021/01/31 07:07:17;;;;;;;0.10;0.00;;;6.60;99.90;;;;;;5050242;28;20049;-60
2021/01/31 07:09:44;;;;;;;2.92;0.10;;;6.50;99.90;;;;;;5050781;28;20037;-55
2021/01/31 07:12:40;;;;;;;0.77;0.10;;;6.60;99.90;;;;;;5050065;28;20033;-55
2021/01/31 07:15:12;;;;;;;0.20;0.10;;;6.50;99.90;;;;;;5039042;28;20108;-56
2021/01/31 07:17:45;;;;;;;0.10;0.00;;;6.50;99.90;;;;;;5050233;28;20036;-56
2021/01/31 07:20:28;;;;;;;2.25;0.00;;;6.60;99.90;;;;;;5050236;28;20033;-57
2021/01/31 07:23:08;;;;;;;0.30;0.08;;;6.60;99.90;;;;;;5050192;28;20041;-56
2021/01/31 07:25:40;;;;;;;0.60;0.00;;;6.50;99.90;;;;;;5049870;28;20040;-58
2021/01/31 07:28:29;;;;;;;0.28;0.00;;;6.60;99.90;;;;;;5050041;28;20102;-55
2021/01/31 07:31:06;;;;;;;1.65;0.00;;;6.40;99.90;;;;;;5049560;28;20033;-56
2021/01/31 07:33:40;;;;;;;1.60;0.20;;;6.40;99.90;;;;;;5049778;28;20363;-55
2021/01/31 07:36:12;;;;;;;0.20;0.03;;;6.40;99.90;;;;;;5059703;28;20055;-57
2021/01/31 07:38:44;;;;;;;0.20;0.00;;;6.40;99.90;;;;;;5069479;28;20029;-57
2021/01/31 07:41:13;;;;;;;0.30;0.00;;;6.40;99.90;;;;;;5069684;28;20040;-58
2021/01/31 07:43:40;;;;;;;0.30;0.10;;;6.60;99.90;;;;;;5069473;28;20033;-55
2021/01/31 07:46:09;;;;;;;0.52;0.10;;;6.50;99.90;;;;;;5069411;28;20109;-55
2021/01/31 07:48:44;;;;;;;0.52;0.10;;;6.70;99.90;;;;;;5069372;28;20110;-54
2021/01/31 07:51:13;;;;;;;0.40;0.00;;;6.60;99.90;;;;;;5069564;28;20032;-56
2021/01/31 07:53:41;;;;;;;0.68;0.20;;;6.60;99.90;;;;;;5069830;28;20178;-55
2021/01/31 07:56:37;;;;;;;0.30;0.10;;;6.60;99.90;;;;;;5069026;28;20035;-55
2021/01/31 07:59:09;;;;;;;0.55;0.20;;;6.50;99.90;;;;;;5069209;28;20237;-54
2021/01/31 08:01:40;;;;;;;0.70;0.22;;;6.40;99.90;;;;;;5069064;28;20183;-57
2021/01/31 08:04:15;;;;;;;1.15;0.25;;;6.30;99.90;;;;;;5069486;28;20040;-53
2021/01/31 08:06:42;;;;;;;0.63;0.30;;;6.20;99.90;;;;;;5068871;28;20120;-58
2021/01/31 08:09:34;;;;;;;1.00;0.32;;;6.20;99.90;;;;;;5069035;28;20028;-55
2021/01/31 08:12:02;;;;;;;0.80;0.10;;;6.20;99.90;;;;;;5059552;28;20068;-57
2021/01/31 08:15:05;;;;;;;0.77;0.10;;;6.20;99.90;;;;;;5068798;28;20040;-59
2021/01/31 08:17:40;;;;;;;1.55;0.08;;;6.50;99.90;;;;;;5068820;28;20060;-56
2021/01/31 08:20:27;;;;;;;0.55;0.10;;;6.70;99.90;;;;;;5057030;28;20064;-58
2021/01/31 08:22:54;;;;;;;1.25;0.43;;;6.70;99.90;;;;;;5048688;28;20480;-55
2021/01/31 08:25:24;;;;;;;0.43;0.10;;;6.70;99.90;;;;;;5057509;28;20123;-55
2021/01/31 08:28:13;;;;;;;0.85;0.10;;;6.70;99.90;;;;;;5069154;28;20020;-57
2021/01/31 08:30:42;;;;;;;0.15;0.00;;;6.70;99.90;;;;;;5068865;28;20132;-56
2021/01/31 08:33:27;;;;;;;0.15;0.00;;;6.70;99.90;;;;;;5068614;28;20032;-58
2021/01/31 08:35:52;;;;;;;0.30;0.00;;;6.70;99.90;;;;;;5068613;28;20032;-56
2021/01/31 08:38:28;;;;;;;0.22;0.03;;;6.70;99.90;;;;;;5052967;28;20434;-52
2021/01/31 08:43:54;;;;;;;6.13;2.35;;;6.50;99.90;;;;;;5049168;28;20044;-56
2021/01/31 08:46:23;;;;;;;4.00;1.40;;;6.40;99.90;;;;;;5044509;28;20336;-56
2021/01/31 08:48:56;;;;;;;2.42;1.20;;;6.40;99.90;;;;;;5048491;28;20043;-53
2021/01/31 08:51:26;;;;;;;1.58;0.47;;;6.30;99.90;;;;;;5048723;28;20481;-57
2021/01/31 08:54:06;;;;;;;1.63;0.60;;;6.30;99.90;;;;;;5048432;28;20048;-57
2021/01/31 08:56:43;;;;;;;1.58;0.40;;;6.30;99.90;;;;;;5048664;28;20120;-54
2021/01/31 08:59:36;;;;;;;1.02;0.35;;;6.30;99.90;;;;;;5048687;28;20483;-55
2021/01/31 09:02:14;;;;;;;2.50;0.73;;;6.30;99.90;;;;;;5048290;28;20033;-54
2021/01/31 09:04:48;;;;;;;3.30;0.80;;;6.30;99.90;;;;;;5048300;28;20051;-57
2021/01/31 09:07:31;;;;;;;1.98;0.85;;;6.30;99.90;;;;;;5048268;28;20053;-55
2021/01/31 09:10:11;;;;;;;1.73;0.50;;;6.30;99.90;;;;;;5048587;28;20033;-56
2021/01/31 09:12:37;;;;;;;2.78;0.70;;;6.30;99.90;;;;;;5049264;28;20029;-58
2021/01/31 09:15:24;;;;;;;3.55;1.23;;;6.30;99.90;;;;;;5057087;28;20490;-57
2021/01/31 09:17:50;;;;;;;5.35;2.60;;;6.40;99.90;;;;;;5068579;28;20040;-53
2021/01/31 09:20:19;;;;;;;8.85;3.33;;;6.30;99.90;;;;;;5067947;28;20033;-56
2021/01/31 09:22:48;;;;;;;6.65;3.70;;;6.30;99.90;;;;;;5071140;28;20036;-55
2021/01/31 09:25:18;;;;;;;5.65;1.80;;;6.30;99.90;;;;;;5072172;28;20031;-55
2021/01/31 09:27:59;;;;;;;3.22;1.00;;;6.20;99.90;;;;;;5072150;28;20040;-55
2021/01/31 09:30:26;;;;;;;4.80;1.33;;;6.20;99.90;;;;;;5072170;28;20035;-55
2021/01/31 09:33:11;;;;;;;3.88;1.40;;;6.10;99.90;;;;;;5071819;28;20457;-52
2021/01/31 09:35:39;;;;;;;1.45;0.60;;;6.10;99.90;;;;;;5072230;28;20040;-57
2021/01/31 09:38:12;;;;;;;1.88;0.60;;;6.10;99.90;;;;;;5072143;28;20040;-52
2021/01/31 09:40:39;;;;;;;3.38;0.70;;;6.10;99.90;;;;;;5071877;28;20036;-52
2021/01/31 09:43:08;;;;;;;2.53;0.60;;;6.10;99.90;;;;;;5071718;28;20044;-56
2021/01/31 09:45:40;;;;;;;1.52;0.60;;;6.10;99.90;;;;;;5072074;28;20432;-54
2021/01/31 09:48:11;;;;;;;1.48;0.60;;;6.10;99.90;;;;;;5071820;28;20032;-57
2021/01/31 09:50:38;;;;;;;0.98;0.38;;;6.10;99.90;;;;;;5071508;28;20032;-56
2021/01/31 09:53:05;;;;;;;0.60;0.10;;;6.10;99.90;;;;;;5071926;28;20191;-54
2021/01/31 09:55:50;;;;;;;0.50;0.20;;;6.10;99.90;;;;;;5071519;28;20498;-54
2021/01/31 09:58:39;;;;;;;1.05;0.20;;;6.10;99.90;;;;;;5071799;28;20025;-54
2021/01/31 10:01:20;;;;;;;1.50;0.40;;;6.10;99.90;;;;;;5071098;28;20040;-55
2021/01/31 10:03:53;;;;;;;1.30;0.30;;;6.10;99.90;;;;;;5071423;28;20029;-53
2021/01/31 10:06:19;;;;;;;1.20;0.38;;;6.10;99.90;;;;;;5071446;28;20074;-58
2021/01/31 10:08:49;;;;;;;1.52;0.40;;;6.10;99.90;;;;;;5071538;28;20476;-52
2021/01/31 10:11:24;;;;;;;1.10;0.40;;;6.20;99.90;;;;;;5071114;28;20032;-52
2021/01/31 10:13:50;;;;;;;1.23;0.32;;;6.30;99.90;;;;;;5069524;28;20032;-56
2021/01/31 10:16:22;;;;;;;1.35;0.30;;;6.30;99.90;;;;;;5066453;28;20040;-56
2021/01/31 10:18:48;;;;;;;1.50;0.50;;;6.40;99.90;;;;;;5057952;28;20087;-55
2021/01/31 10:21:19;;;;;;;1.58;0.60;;;6.40;99.90;;;;;;5064055;28;20478;-54
2021/01/31 10:23:47;;;;;;;3.13;1.10;;;6.40;99.90;;;;;;5071288;28;20158;-58
2021/01/31 10:26:19;;;;;;;2.92;1.00;;;6.50;99.90;;;;;;5071389;28;20124;-57
2021/01/31 10:28:51;;;;;;;2.20;1.27;;;6.60;99.90;;;;;;5071078;28;20033;-55
2021/01/31 10:31:29;;;;;;;2.97;1.45;;;6.60;99.90;;;;;;5071227;28;20370;-55
2021/01/31 10:33:56;;;;;;;2.75;1.20;;;6.60;99.90;;;;;;5069679;28;20032;-55
2021/01/31 10:36:26;;;;;;;2.13;0.63;;;6.60;99.90;;;;;;5070391;28;20048;-55
2021/01/31 10:38:54;;;;;;;1.85;0.68;;;6.60;99.90;;;;;;5070855;28;20110;-63
2021/01/31 10:41:20;;;;;;;3.17;0.80;;;6.60;99.90;;;;;;5070779;28;20033;-53
2021/01/31 10:44:06;;;;;;;4.60;1.42;;;6.60;99.90;;;;;;5070950;28;20082;-56
2021/01/31 10:46:33;;;;;;;;;;;6.70;99.90;;;;;;5071504;28;20051;-54
2021/01/31 10:48:59;;;;;;;6.75;1.33;;;6.70;99.90;;;;;;5070668;28;19939;-56
2021/01/31 10:51:32;;;;;;;2.00;0.90;;;6.70;99.90;;;;;;5069377;28;20415;-55
2021/01/31 10:53:58;;;;;;;3.30;1.40;;;6.70;99.90;;;;;;5063928;28;20090;-57
2021/01/31 10:56:24;;;;;;;1.70;0.50;;;6.70;99.90;;;;;;5070949;28;20073;-55
2021/01/31 10:58:50;;;;;;;2.83;0.93;;;6.70;99.90;;;;;;5071001;28;20032;-56
2021/01/31 11:01:16;;;;;;;4.35;1.58;;;6.80;99.90;;;;;;5070635;28;20032;-56
2021/01/31 11:03:42;;;;;;;2.28;1.10;;;6.70;99.90;;;;;;5070719;28;20044;-55
2021/01/31 11:06:08;;;;;;;3.40;0.90;;;6.70;99.90;;;;;;5070427;28;20484;-55
2021/01/31 11:08:33;;;;;;;2.85;1.23;;;6.70;99.90;;;;;;5067237;28;20024;-57
2021/01/31 11:11:00;;;;;;;3.35;0.75;;;6.70;99.90;;;;;;5063324;28;20094;-57
2021/01/31 11:13:26;;;;;;;3.22;0.80;;;6.70;99.90;;;;;;5062115;28;20067;-58
2021/01/31 11:15:53;;;;;;;1.05;0.40;;;6.70;99.90;;;;;;5069937;28;20079;-54
2021/01/31 11:18:18;;;;;;;2.20;0.90;;;6.70;99.90;;;;;;5050561;28;20055;-57
2021/01/31 11:20:44;;;;;;;2.03;0.77;;;6.80;99.90;;;;;;5050309;28;20522;-57
2021/01/31 11:23:10;;;;;;;1.83;0.88;;;6.80;99.90;;;;;;5049741;28;20135;-55
2021/01/31 11:25:36;;;;;;;3.67;1.02;;;6.80;99.90;;;;;;5050213;28;20112;-58
2021/01/31 11:28:03;;;;;;;1.10;0.30;;;6.80;99.90;;;;;;5063206;28;20444;-56
2021/01/31 11:30:29;;;;;;;1.33;0.30;;;6.80;99.90;;;;;;5049502;28;20108;-57
2021/01/31 11:32:56;;;;;;;0.80;0.32;;;6.70;99.90;;;;;;5059095;28;20492;-56
2021/01/31 11:35:22;;;;;;;1.17;0.30;;;6.70;99.90;;;;;;5059440;28;20060;-58
2021/01/31 11:37:49;;;;;;;1.08;0.30;;;6.80;99.90;;;;;;5070443;28;20086;-56
2021/01/31 11:40:15;;;;;;;0.80;0.30;;;6.80;99.90;;;;;;5070015;28;20029;-54
2021/01/31 11:42:41;;;;;;;1.00;0.20;;;6.80;99.90;;;;;;5067742;28;20295;-58
2021/01/31 11:45:08;;;;;;;0.90;0.30;;;6.90;99.90;;;;;;5069110;28;20291;-58
2021/01/31 11:47:39;;;;;;;0.70;0.20;;;6.90;99.90;;;;;;5069509;28;20380;-57
2021/01/31 11:50:06;;;;;;;1.73;0.50;;;6.90;99.90;;;;;;5069777;28;20059;-58
2021/01/31 11:52:32;;;;;;;0.90;0.30;;;6.80;99.90;;;;;;5069170;28;20082;-55
2021/01/31 11:54:58;;;;;;;1.90;0.25;;;6.80;99.90;;;;;;5069437;28;20024;-58
2021/01/31 11:57:24;;;;;;;0.63;0.20;;;6.90;99.90;;;;;;5068837;28;20036;-59
2021/01/31 11:59:50;;;;;;;1.50;0.40;;;6.90;99.90;;;;;;5068832;28;20033;-58
2021/01/31 12:02:16;;;;;;;0.82;0.20;;;6.90;99.90;;;;;;5068145;28;20434;-58
2021/01/31 12:04:42;;;;;;;1.35;0.35;;;6.90;99.90;;;;;;5062796;28;20790;-64
2021/01/31 12:07:09;;;;;;;3.15;0.75;;;6.80;99.90;;;;;;5066885;28;20045;-61
2021/01/31 12:09:35;;;;;;;2.58;0.65;;;6.80;99.90;;;;;;5057637;28;20329;-61
2021/01/31 12:12:02;;;;;;;2.15;0.45;;;6.80;99.90;;;;;;5068931;28;20024;-60
2021/01/31 12:14:27;;;;;;;1.00;0.30;;;6.80;99.90;;;;;;5057317;28;20118;-63
2021/01/31 12:16:54;;;;;;;2.55;0.93;;;6.70;99.90;;;;;;5048923;28;20056;-57
2021/01/31 12:19:21;;;;;;;0.80;0.40;;;6.70;99.90;;;;;;5048797;28;20037;-55
2021/01/31 12:21:47;;;;;;;1.80;0.45;;;6.80;99.90;;;;;;5048710;28;20456;-53
2021/01/31 12:24:14;;;;;;;0.60;0.20;;;6.80;99.90;;;;;;5049209;28;20053;-54
2021/01/31 12:26:39;;;;;;;0.70;0.20;;;6.80;99.90;;;;;;5060192;28;20410;-55
2021/01/31 12:29:05;;;;;;;0.75;0.30;;;6.80;99.90;;;;;;5056734;28;20024;-53
2021/01/31 12:31:31;;;;;;;1.73;0.28;;;6.80;99.90;;;;;;5068697;28;20395;-53
2021/01/31 12:33:57;;;;;;;0.68;0.20;;;6.90;99.90;;;;;;5068553;28;20032;-58
2021/01/31 12:36:22;;;;;;;0.85;0.30;;;6.90;99.90;;;;;;5068564;28;20067;-54
2021/01/31 12:38:48;;;;;;;0.90;0.32;;;7.00;99.90;;;;;;5068834;28;20029;-57
2021/01/31 12:41:14;;;;;;;0.73;0.22;;;7.10;99.90;;;;;;5068859;28;20501;-53
2021/01/31 12:43:40;;;;;;;0.82;0.30;;;7.10;99.90;;;;;;5069065;28;20025;-55
2021/01/31 12:46:05;;;;;;;1.10;0.30;;;7.20;99.90;;;;;;5068612;28;20032;-58
2021/01/31 12:48:31;;;;;;;0.85;0.32;;;7.10;99.90;;;;;;5068773;28;20037;-55
2021/01/31 12:50:57;;;;;;;0.70;0.25;;;7.20;99.90;;;;;;5068639;28;20464;-58
2021/01/31 12:53:23;;;;;;;1.08;0.30;;;7.20;99.90;;;;;;5068507;28;20154;-53
2021/01/31 12:55:48;;;;;;;0.73;0.30;;;7.10;99.90;;;;;;5067910;28;20035;-56
2021/01/31 12:58:14;;;;;;;1.25;0.30;;;7.10;99.90;;;;;;5068645;28;20041;-58
2021/01/31 13:00:40;;;;;;;0.85;0.20;;;7.10;99.90;;;;;;5068542;28;20032;-55
2021/01/31 13:03:05;;;;;;;0.90;0.25;;;7.10;99.90;;;;;;5068615;28;20036;-53
2021/01/31 13:05:31;;;;;;;0.82;0.15;;;7.00;99.90;;;;;;5068383;28;20046;-53
2021/01/31 13:08:01;;;;;;;1.35;0.35;;;6.90;99.90;;;;;;5068841;28;20044;-56
2021/01/31 13:10:29;;;;;;;3.75;0.30;;;6.90;99.90;;;;;;5068365;28;20074;-58
2021/01/31 13:12:55;;;;;;;1.05;0.22;;;7.00;99.90;;;;;;5068724;28;20447;-57
2021/01/31 13:15:21;;;;;;;1.20;0.20;;;6.80;99.90;;;;;;5068492;28;20115;-56
2021/01/31 13:17:47;;;;;;;0.70;0.38;;;6.80;99.90;;;;;;5068664;28;20040;-57
2021/01/31 13:20:13;;;;;;;0.98;0.32;;;7.00;99.90;;;;;;5066781;28;20403;-54
2021/01/31 13:22:39;;;;;;;1.10;0.30;;;7.10;99.90;;;;;;5056952;28;20058;-56
2021/01/31 13:25:06;;;;;;;1.42;0.40;;;7.10;99.90;;;;;;5068157;28;20034;-58
2021/01/31 13:27:32;;;;;;;1.35;0.40;;;7.20;99.90;;;;;;5066168;28;20025;-56